Time;durP1;ratioP1;P1;durP2;ratioP2;P2;SDS_P1;SDS_P2;PMS_P1;PMS_P2;Temp;Humidity;BMP_temperature;BMP_pressure;BME280_temperature;BME280_humidity;BME280_pressure;Samples;Min_cycle;Max_cycle;Signal;HPM_P1;HPM_P2
2022/04/05 00:02:16;;;;;;;11.00;7.70;;;9.90;99.90;;;;;;5049252;28;20536;-66
2022/04/05 00:04:43;;;;;;;10.60;8.80;;;10.00;99.90;;;;;;5049551;28;20481;-66
2022/04/05 00:07:11;;;;;;;14.63;7.97;;;10.00;99.90;;;;;;5049349;28;20454;-68
2022/04/05 00:09:38;;;;;;;10.27;6.63;;;9.90;99.90;;;;;;5049643;28;20454;-70
2022/04/05 00:12:05;;;;;;;13.47;7.83;;;9.80;99.90;;;;;;5049795;28;20449;-66
2022/04/05 00:14:34;;;;;;;14.57;7.87;;;9.70;99.90;;;;;;5049578;28;20453;-69
2022/04/05 00:17:02;;;;;;;9.90;7.20;;;9.70;99.90;;;;;;5049263;28;20453;-69
2022/04/05 00:19:30;;;;;;;11.90;8.93;;;9.60;99.90;;;;;;5049759;28;20854;-68
2022/04/05 00:21:57;;;;;;;13.40;7.97;;;9.40;99.90;;;;;;5049336;28;20482;-67
2022/04/05 00:24:24;;;;;;;10.90;8.67;;;9.30;99.90;;;;;;5049003;28;20494;-65
2022/04/05 00:26:51;;;;;;;13.27;8.87;;;9.20;99.90;;;;;;5049390;28;20485;-69
2022/04/05 00:29:19;;;;;;;10.93;8.53;;;9.10;99.90;;;;;;5049476;28;20477;-65
2022/04/05 00:31:47;;;;;;;12.57;8.57;;;9.20;99.90;;;;;;5049486;28;20450;-68
2022/04/05 00:34:14;;;;;;;10.47;8.00;;;9.30;99.90;;;;;;5049342;28;20791;-70
2022/04/05 00:36:42;;;;;;;14.10;10.37;;;9.30;99.90;;;;;;5049061;28;20470;-66
2022/04/05 00:39:09;;;;;;;12.77;9.00;;;9.30;99.90;;;;;;5049411;28;20450;-66
2022/04/05 00:41:36;;;;;;;12.90;8.57;;;9.40;99.90;;;;;;5049313;28;20457;-70
2022/04/05 00:44:04;;;;;;;12.70;9.10;;;9.50;99.90;;;;;;5049243;28;20508;-69
2022/04/05 00:46:31;;;;;;;11.30;9.07;;;9.60;99.90;;;;;;5049108;28;20934;-65
2022/04/05 00:49:02;;;;;;;14.00;8.40;;;9.70;99.90;;;;;;5048840;28;20481;-66
2022/04/05 00:51:29;;;;;;;10.57;7.70;;;9.70;99.90;;;;;;5048840;28;20845;-68
2022/04/05 00:53:59;;;;;;;12.37;10.20;;;9.60;99.90;;;;;;5048855;28;20456;-64
2022/04/05 00:56:27;;;;;;;16.27;9.70;;;9.50;99.90;;;;;;5049061;28;20470;-68
2022/04/05 00:58:56;;;;;;;15.23;10.40;;;9.50;99.90;;;;;;5049142;28;20450;-69
2022/04/05 01:01:27;;;;;;;14.13;9.80;;;9.00;99.90;;;;;;5049114;28;20465;-68
2022/04/05 01:03:55;;;;;;;14.27;9.27;;;8.70;99.90;;;;;;5048817;28;20486;-69
2022/04/05 01:06:28;;;;;;;13.63;9.00;;;8.90;99.90;;;;;;5048909;28;20548;-66
2022/04/05 01:08:56;;;;;;;13.97;9.23;;;9.00;99.90;;;;;;5048944;28;20442;-70
2022/04/05 01:11:24;;;;;;;10.80;9.00;;;8.90;99.90;;;;;;5048931;28;20490;-67
2022/04/05 01:13:52;;;;;;;13.47;9.53;;;9.00;99.90;;;;;;5052873;28;20453;-66
2022/04/05 01:16:20;;;;;;;13.33;9.67;;;9.10;99.90;;;;;;5052426;28;20505;-67
2022/04/05 01:18:48;;;;;;;15.83;9.97;;;9.10;99.90;;;;;;5052519;28;20540;-68
2022/04/05 01:21:15;;;;;;;18.87;9.13;;;8.80;99.90;;;;;;5052695;28;20813;-64
2022/04/05 01:23:59;;;;;;;11.30;8.40;;;8.60;99.90;;;;;;5052549;28;20524;-66
2022/04/05 01:26:26;;;;;;;12.67;9.00;;;8.30;99.90;;;;;;5051911;28;20481;-67
2022/04/05 01:28:53;;;;;;;11.30;8.20;;;8.40;99.90;;;;;;5052224;28;20457;-69
2022/04/05 01:31:20;;;;;;;11.40;7.50;;;8.50;99.90;;;;;;5052337;28;20476;-65
2022/04/05 01:33:47;;;;;;;13.20;8.63;;;8.80;99.90;;;;;;5052371;28;20491;-68
2022/04/05 01:36:21;;;;;;;10.63;8.20;;;8.80;99.90;;;;;;5052411;28;20466;-66
2022/04/05 01:38:50;;;;;;;11.00;7.93;;;9.00;99.90;;;;;;5052347;28;20465;-67
2022/04/05 01:41:17;;;;;;;10.03;8.10;;;9.00;99.90;;;;;;5052214;28;20454;-66
2022/04/05 01:43:44;;;;;;;11.77;8.57;;;9.00;99.90;;;;;;5052119;28;20827;-65
2022/04/05 01:46:11;;;;;;;12.10;9.10;;;9.00;99.90;;;;;;5052093;28;20557;-68
2022/04/05 01:48:39;;;;;;;13.50;9.53;;;9.10;99.90;;;;;;5051602;28;20481;-70
2022/04/05 01:51:06;;;;;;;15.33;9.27;;;9.00;99.90;;;;;;5052215;28;20893;-66
2022/04/05 01:53:34;;;;;;;12.63;10.20;;;9.10;99.90;;;;;;5052113;28;20477;-67
2022/04/05 01:56:02;;;;;;;13.33;9.00;;;8.90;99.90;;;;;;5051750;28;20458;-66
2022/04/05 01:58:29;;;;;;;12.43;9.40;;;8.80;99.90;;;;;;5051777;28;20502;-70
2022/04/05 02:00:57;;;;;;;13.23;9.30;;;8.70;99.90;;;;;;5051958;28;20454;-65
2022/04/05 02:03:24;;;;;;;12.00;9.50;;;8.80;99.90;;;;;;5051880;28;20489;-70
2022/04/05 02:05:51;;;;;;;13.60;9.97;;;8.80;99.90;;;;;;5051914;28;20458;-67
2022/04/05 02:08:18;;;;;;;11.07;9.40;;;8.80;99.90;;;;;;5051729;28;20462;-66
2022/04/05 02:10:45;;;;;;;12.77;9.20;;;8.80;99.90;;;;;;5051594;28;20907;-68
2022/04/05 02:13:14;;;;;;;13.93;9.90;;;8.90;99.90;;;;;;5051239;28;20456;-70
2022/04/05 02:15:41;;;;;;;10.83;8.50;;;8.90;99.90;;;;;;5051666;28;20497;-67
2022/04/05 02:18:08;;;;;;;14.67;9.30;;;8.90;99.90;;;;;;5051494;28;20469;-68
2022/04/05 02:20:35;;;;;;;14.20;8.93;;;8.70;99.90;;;;;;5051292;28;20861;-65
2022/04/05 02:23:03;;;;;;;13.33;9.27;;;8.70;99.90;;;;;;5051033;28;20461;-68
2022/04/05 02:25:31;;;;;;;13.47;9.60;;;8.80;99.90;;;;;;5050891;28;20522;-67
2022/04/05 02:27:58;;;;;;;13.10;8.43;;;8.80;99.90;;;;;;5051323;28;20470;-67
2022/04/05 02:30:26;;;;;;;13.10;9.27;;;8.80;99.90;;;;;;5051479;28;20460;-69
2022/04/05 02:32:53;;;;;;;11.40;8.60;;;8.70;99.90;;;;;;5051471;28;20485;-69
2022/04/05 02:35:20;;;;;;;11.90;8.07;;;8.70;99.90;;;;;;5051168;28;20460;-69
2022/04/05 02:37:47;;;;;;;11.57;8.70;;;8.80;99.90;;;;;;5051168;28;20474;-65
2022/04/05 02:40:15;;;;;;;14.17;9.37;;;8.70;99.90;;;;;;5051068;28;20461;-66
2022/04/05 02:42:42;;;;;;;13.80;9.13;;;8.60;99.90;;;;;;5050704;28;20458;-67
2022/04/05 02:45:10;;;;;;;10.67;8.20;;;8.60;99.90;;;;;;5051080;28;20489;-70
2022/04/05 02:47:39;;;;;;;12.50;8.23;;;8.60;99.90;;;;;;5050710;28;20897;-66
2022/04/05 02:50:06;;;;;;;10.23;7.97;;;8.60;99.90;;;;;;5050715;28;20484;-65
2022/04/05 02:52:33;;;;;;;9.93;7.47;;;8.50;99.90;;;;;;5050947;28;20477;-70
2022/04/05 02:55:01;;;;;;;11.00;7.87;;;8.50;99.90;;;;;;5050882;28;20446;-65
2022/04/05 02:57:28;;;;;;;13.30;7.70;;;8.50;99.90;;;;;;5050428;28;20994;-67
2022/04/05 02:59:56;;;;;;;11.30;8.10;;;8.50;99.90;;;;;;5050912;28;20454;-67
2022/04/05 03:02:23;;;;;;;11.00;8.20;;;8.40;99.90;;;;;;5050325;28;20450;-70
2022/04/05 03:04:52;;;;;;;9.93;7.83;;;8.40;99.90;;;;;;5050632;28;20521;-70
2022/04/05 03:07:19;;;;;;;13.73;8.70;;;8.50;99.90;;;;;;5050624;28;20477;-66
2022/04/05 03:09:46;;;;;;;13.10;8.93;;;8.60;99.90;;;;;;5050831;28;20456;-67
2022/04/05 03:12:13;;;;;;;9.87;7.10;;;8.60;99.90;;;;;;5050669;28;20500;-70
2022/04/05 03:14:40;;;;;;;13.47;9.43;;;8.70;99.90;;;;;;5050250;28;20446;-66
2022/04/05 03:17:07;;;;;;;12.60;10.17;;;8.80;99.90;;;;;;5050517;28;20581;-68
2022/04/05 03:19:34;;;;;;;19.07;11.33;;;8.80;99.90;;;;;;5050540;28;20789;-66
2022/04/05 03:22:05;;;;;;;11.97;8.63;;;8.80;99.90;;;;;;5050430;28;20465;-66
2022/04/05 03:24:32;;;;;;;12.67;9.00;;;8.90;99.90;;;;;;5050456;28;20532;-67
2022/04/05 03:26:59;;;;;;;12.63;9.30;;;8.90;99.90;;;;;;5050358;28;20577;-69
2022/04/05 03:29:26;;;;;;;14.67;8.20;;;8.90;99.90;;;;;;5049879;28;20935;-68
2022/04/05 03:31:54;;;;;;;20.63;11.43;;;8.80;99.90;;;;;;5049852;28;20450;-70
2022/04/05 03:34:21;;;;;;;13.87;9.37;;;8.80;99.90;;;;;;5050119;28;20980;-69
2022/04/05 03:36:48;;;;;;;19.77;11.80;;;8.70;99.90;;;;;;5049925;28;20489;-65
2022/04/05 03:39:16;;;;;;;14.60;9.90;;;8.40;99.90;;;;;;5050204;28;20808;-67
2022/04/05 03:41:45;;;;;;;13.17;10.57;;;8.00;99.90;;;;;;5049611;28;20930;-74
2022/04/05 03:44:12;;;;;;;18.40;10.87;;;8.20;99.90;;;;;;5049590;28;20489;-77
2022/04/05 03:46:39;;;;;;;15.90;11.03;;;8.30;99.90;;;;;;5049909;28;20473;-75
2022/04/05 03:49:08;;;;;;;15.50;11.73;;;8.50;99.90;;;;;;5049770;28;20536;-73
2022/04/05 03:51:36;;;;;;;12.57;9.60;;;8.50;99.90;;;;;;5049836;28;20454;-74
2022/04/05 03:54:03;;;;;;;12.90;9.57;;;8.40;99.90;;;;;;5050041;28;20450;-75
2022/04/05 03:56:31;;;;;;;15.87;9.97;;;8.30;99.90;;;;;;5049426;28;21000;-74
2022/04/05 03:58:58;;;;;;;14.37;10.50;;;8.30;99.90;;;;;;5049912;28;20450;-76
2022/04/05 04:01:26;;;;;;;14.70;10.30;;;8.30;99.90;;;;;;5049707;28;20457;-79
2022/04/05 04:03:53;;;;;;;14.50;11.50;;;8.30;99.90;;;;;;5049635;28;20458;-70
2022/04/05 04:06:20;;;;;;;13.20;11.27;;;8.40;99.90;;;;;;5049732;28;20477;-69
2022/04/05 04:08:47;;;;;;;18.23;12.60;;;8.30;99.90;;;;;;5048278;28;20453;-68
2022/04/05 04:11:14;;;;;;;20.03;14.20;;;8.20;99.90;;;;;;5049394;28;20446;-67
2022/04/05 04:13:43;;;;;;;20.43;14.27;;;8.10;99.90;;;;;;5049279;28;20499;-69
2022/04/05 04:16:10;;;;;;;26.10;15.67;;;8.10;99.90;;;;;;5049401;28;20492;-70
2022/04/05 04:18:37;;;;;;;21.37;14.40;;;8.00;99.90;;;;;;5049455;28;20462;-70
2022/04/05 04:21:05;;;;;;;18.97;15.23;;;8.00;99.90;;;;;;5049460;28;20514;-70
2022/04/05 04:23:32;;;;;;;18.07;14.47;;;8.10;99.90;;;;;;5049470;28;20989;-69
2022/04/05 04:25:59;;;;;;;21.23;15.07;;;8.00;99.90;;;;;;5049121;28;20485;-69
2022/04/05 04:28:26;;;;;;;22.20;12.87;;;8.00;99.90;;;;;;5049272;28;20457;-69
2022/04/05 04:30:54;;;;;;;20.53;13.77;;;8.10;99.90;;;;;;5049305;28;20454;-71
2022/04/05 04:33:21;;;;;;;18.40;13.50;;;8.20;99.90;;;;;;5049405;28;20465;-70
2022/04/05 04:35:49;;;;;;;17.50;13.10;;;8.30;99.90;;;;;;5049374;28;20446;-69
2022/04/05 04:38:16;;;;;;;19.90;13.30;;;8.30;99.90;;;;;;5049036;28;20461;-69
2022/04/05 04:40:47;;;;;;;18.23;12.60;;;8.20;99.90;;;;;;5049336;28;20917;-69
2022/04/05 04:43:15;;;;;;;16.47;12.33;;;8.00;99.90;;;;;;5049162;28;20473;-69
2022/04/05 04:45:42;;;;;;;17.83;12.73;;;7.80;99.90;;;;;;5049150;28;20572;-70
2022/04/05 04:48:11;;;;;;;21.03;12.10;;;8.00;99.90;;;;;;5050433;28;21307;-69
2022/04/05 04:50:38;;;;;;;14.10;10.97;;;8.10;99.90;;;;;;5053011;28;20799;-68
2022/04/05 04:53:06;;;;;;;18.03;10.70;;;8.10;99.90;;;;;;5052904;28;20461;-70
2022/04/05 04:55:33;;;;;;;18.57;11.30;;;7.80;99.90;;;;;;5052907;28;20454;-68
2022/04/05 04:58:00;;;;;;;16.57;11.30;;;7.90;99.90;;;;;;5052811;28;20477;-69
2022/04/05 05:00:27;;;;;;;20.33;10.30;;;7.80;99.90;;;;;;5052887;28;20552;-70
2022/04/05 05:02:54;;;;;;;19.00;11.37;;;7.70;99.90;;;;;;5052801;28;20827;-70
2022/04/05 05:05:24;;;;;;;14.60;10.87;;;7.60;99.90;;;;;;5052327;28;21000;-69
2022/04/05 05:07:52;;;;;;;13.67;10.93;;;7.60;99.90;;;;;;5052591;28;21139;-70
2022/04/05 05:10:20;;;;;;;18.03;10.23;;;7.90;99.90;;;;;;5052566;28;20507;-71
2022/04/05 05:12:48;;;;;;;18.53;12.00;;;8.00;99.90;;;;;;5052695;28;20465;-70
2022/04/05 05:15:18;;;;;;;14.80;12.23;;;8.10;99.90;;;;;;5052521;28;20450;-71
2022/04/05 05:17:47;;;;;;;16.63;13.10;;;8.10;99.90;;;;;;5051999;28;20473;-69
2022/04/05 05:20:15;;;;;;;17.43;13.20;;;8.10;99.90;;;;;;5052333;28;20457;-69
2022/04/05 05:22:44;;;;;;;20.33;13.93;;;7.80;99.90;;;;;;5052309;28;20457;-70
2022/04/05 05:25:12;;;;;;;15.87;12.17;;;7.60;99.90;;;;;;5052276;28;20490;-70
2022/04/05 05:27:39;;;;;;;14.57;11.37;;;7.80;99.90;;;;;;5052363;28;20486;-69
2022/04/05 05:30:08;;;;;;;17.80;11.03;;;7.90;99.90;;;;;;5052294;28;20450;-69
2022/04/05 05:32:43;;;;;;;16.93;11.33;;;8.10;99.90;;;;;;5051818;28;20942;-69
2022/04/05 05:35:11;;;;;;;19.43;11.60;;;8.20;99.90;;;;;;5052138;28;20484;-70
2022/04/05 05:37:38;;;;;;;17.43;12.60;;;8.30;99.90;;;;;;5051831;28;21020;-68
2022/04/05 05:40:08;;;;;;;14.73;12.43;;;8.30;99.90;;;;;;5052400;28;20534;-71
2022/04/05 05:42:36;;;;;;;14.43;11.33;;;8.40;99.90;;;;;;5052123;28;20450;-70
2022/04/05 05:45:03;;;;;;;15.47;11.40;;;8.40;99.90;;;;;;5052214;28;20485;-70
2022/04/05 05:47:30;;;;;;;14.77;12.03;;;8.30;99.90;;;;;;5051870;28;20465;-69
2022/04/05 05:49:57;;;;;;;17.27;13.33;;;8.40;99.90;;;;;;5051785;28;20966;-69
2022/04/05 05:52:24;;;;;;;16.90;11.13;;;8.30;99.90;;;;;;5051589;28;20469;-69
2022/04/05 05:54:52;;;;;;;15.83;11.37;;;8.40;99.90;;;;;;5051361;28;20477;-70
2022/04/05 05:57:20;;;;;;;18.13;11.23;;;8.50;99.90;;;;;;5051587;28;20480;-72
2022/04/05 05:59:47;;;;;;;18.17;12.03;;;8.70;99.90;;;;;;5050393;28;20836;-69
2022/04/05 06:02:14;;;;;;;15.43;10.70;;;8.80;99.90;;;;;;5051282;28;20454;-69
2022/04/05 06:04:42;;;;;;;30.00;11.70;;;8.90;99.90;;;;;;5051554;28;20454;-69
2022/04/05 06:07:09;;;;;;;17.63;11.47;;;9.00;99.90;;;;;;5051166;28;20580;-72
2022/04/05 06:09:36;;;;;;;13.77;11.77;;;9.20;99.90;;;;;;5051664;28;20453;-71
2022/04/05 06:12:05;;;;;;;17.97;11.13;;;9.10;99.90;;;;;;5051757;28;20528;-71
2022/04/05 06:14:34;;;;;;;19.30;10.17;;;9.20;99.90;;;;;;5051489;28;20497;-71
2022/04/05 06:17:01;;;;;;;16.40;12.40;;;9.50;99.90;;;;;;5050972;28;20470;-72
2022/04/05 06:19:28;;;;;;;14.90;12.30;;;9.60;99.90;;;;;;5051463;28;20473;-71
2022/04/05 06:21:55;;;;;;;15.43;11.97;;;9.50;99.90;;;;;;5051295;28;20454;-72
2022/04/05 06:24:23;;;;;;;14.17;11.90;;;9.50;99.90;;;;;;5050964;28;20469;-68
2022/04/05 06:26:50;;;;;;;14.00;11.80;;;9.70;99.90;;;;;;5051302;28;20493;-71
2022/04/05 06:29:17;;;;;;;21.73;11.87;;;9.90;99.90;;;;;;5051035;28;20461;-72
2022/04/05 06:31:45;;;;;;;16.27;13.67;;;10.00;99.90;;;;;;5051301;28;20480;-70
2022/04/05 06:34:13;;;;;;;20.03;12.10;;;10.20;99.90;;;;;;5051188;28;20467;-72
2022/04/05 06:36:41;;;;;;;19.03;12.63;;;10.50;99.90;;;;;;5051214;28;20462;-70
2022/04/05 06:39:08;;;;;;;14.93;11.57;;;10.70;99.90;;;;;;5050828;28;20545;-71
2022/04/05 06:41:35;;;;;;;22.23;12.20;;;11.00;99.90;;;;;;5050688;28;20503;-69
2022/04/05 06:44:02;;;;;;;12.60;10.67;;;11.20;99.90;;;;;;5050745;28;20957;-65
2022/04/05 06:46:29;;;;;;;18.87;11.93;;;11.30;99.90;;;;;;5050771;28;20489;-70
2022/04/05 06:48:58;;;;;;;16.50;13.53;;;11.30;99.90;;;;;;5050387;28;21025;-69
2022/04/05 06:51:25;;;;;;;15.77;11.83;;;11.10;99.90;;;;;;5051006;28;20450;-69
2022/04/05 06:53:52;;;;;;;20.00;11.23;;;10.80;99.90;;;;;;5050513;28;20852;-66
2022/04/05 06:56:21;;;;;;;20.33;13.30;;;10.80;99.90;;;;;;5050575;28;20853;-67
2022/04/05 06:58:48;;;;;;;15.20;12.13;;;10.70;99.90;;;;;;5050703;28;20802;-65
2022/04/05 07:01:15;;;;;;;16.83;11.23;;;10.80;99.90;;;;;;5050820;28;20442;-69
2022/04/05 07:03:42;;;;;;;15.30;12.43;;;10.90;99.90;;;;;;5050789;28;20949;-67
2022/04/05 07:06:11;;;;;;;24.50;18.63;;;11.10;99.90;;;;;;5050069;28;20490;-66
2022/04/05 07:08:38;;;;;;;16.17;12.77;;;11.10;99.90;;;;;;5050260;28;20490;-69
2022/04/05 07:11:05;;;;;;;13.77;11.90;;;11.30;99.90;;;;;;5049892;28;20825;-68
2022/04/05 07:13:32;;;;;;;15.40;11.73;;;11.60;99.90;;;;;;5050395;28;20450;-68
2022/04/05 07:15:59;;;;;;;16.57;10.90;;;11.80;99.90;;;;;;5050337;28;20457;-69
2022/04/05 07:18:26;;;;;;;14.10;10.90;;;12.00;99.90;;;;;;5050260;28;20450;-70
2022/04/05 07:20:53;;;;;;;12.30;10.33;;;12.00;99.90;;;;;;5049963;28;20480;-71
2022/04/05 07:23:22;;;;;;;17.40;12.17;;;12.00;99.90;;;;;;5050308;28;20519;-67
2022/04/05 07:25:49;;;;;;;13.70;10.03;;;12.10;99.90;;;;;;5050229;28;20485;-67
2022/04/05 07:28:16;;;;;;;15.13;9.83;;;12.30;99.90;;;;;;5050370;28;20450;-67
2022/04/05 07:30:43;;;;;;;14.50;11.43;;;12.60;99.90;;;;;;5050295;28;20504;-68
2022/04/05 07:33:10;;;;;;;14.30;11.30;;;12.60;99.90;;;;;;5050217;28;20488;-67
2022/04/05 07:35:38;;;;;;;18.27;14.50;;;12.70;99.90;;;;;;5049543;28;20962;-68
2022/04/05 07:38:05;;;;;;;14.80;12.17;;;13.00;99.90;;;;;;5049652;28;20470;-68
2022/04/05 07:43:15;;;;;;;17.17;12.60;;;13.50;99.90;;;;;;5049827;28;20951;-68
2022/04/05 07:45:42;;;;;;;15.70;12.10;;;13.80;99.60;;;;;;5049817;28;20535;-69
2022/04/05 07:48:09;;;;;;;13.67;10.90;;;13.90;99.10;;;;;;5049066;28;21056;-65
2022/04/05 07:50:36;;;;;;;14.43;11.20;;;14.20;98.00;;;;;;5049466;28;20456;-67
2022/04/05 07:53:03;;;;;;;13.20;11.23;;;14.40;97.50;;;;;;5049691;28;20462;-66
2022/04/05 07:55:31;;;;;;;15.60;10.87;;;14.50;96.70;;;;;;5049623;28;20454;-68
2022/04/05 07:58:00;;;;;;;16.93;11.03;;;14.60;96.40;;;;;;5049760;28;20449;-68
2022/04/05 08:00:28;;;;;;;13.43;10.93;;;14.80;95.00;;;;;;5049724;28;20812;-65
2022/04/05 08:02:55;;;;;;;14.57;10.77;;;14.90;94.30;;;;;;5049831;28;20457;-70
2022/04/05 08:05:23;;;;;;;17.07;11.33;;;15.00;93.60;;;;;;5049542;28;20450;-68
2022/04/05 08:07:51;;;;;;;18.83;11.10;;;15.00;93.20;;;;;;5049232;28;20474;-69
2022/04/05 08:10:18;;;;;;;13.97;9.13;;;15.30;93.00;;;;;;5049142;28;20457;-68
2022/04/05 08:12:49;;;;;;;11.87;9.90;;;15.10;92.20;;;;;;5049617;28;20549;-67
2022/04/05 08:15:21;;;;;;;12.33;8.87;;;15.10;90.70;;;;;;5049195;28;20445;-68
2022/04/05 08:17:50;;;;;;;10.30;8.63;;;15.10;90.70;;;;;;5049120;28;20478;-69
2022/04/05 08:20:18;;;;;;;11.90;9.40;;;15.30;91.20;;;;;;5048069;28;20963;-70
2022/04/05 08:22:45;;;;;;;11.93;8.60;;;15.40;90.30;;;;;;5048860;28;20456;-70
2022/04/05 08:25:15;;;;;;;10.37;8.40;;;15.60;89.00;;;;;;5049433;28;20537;-71
2022/04/05 08:27:42;;;;;;;13.17;8.70;;;15.80;88.30;;;;;;5049247;28;20556;-67
2022/04/05 08:30:12;;;;;;;14.23;10.63;;;15.80;87.40;;;;;;5049245;28;20837;-67
2022/04/05 08:32:42;;;;;;;15.57;11.70;;;15.80;86.90;;;;;;5049257;28;20545;-68
2022/04/05 08:35:10;;;;;;;14.97;9.50;;;15.90;86.50;;;;;;5049428;28;20462;-69
2022/04/05 08:37:37;;;;;;;15.47;12.47;;;16.00;87.00;;;;;;5049215;28;20466;-69
2022/04/05 08:40:07;;;;;;;11.30;7.60;;;16.40;84.60;;;;;;5049020;28;20449;-68
2022/04/05 08:42:34;;;;;;;10.63;9.07;;;16.60;81.50;;;;;;5048871;28;20501;-70
2022/04/05 08:45:04;;;;;;;9.97;7.97;;;16.70;80.30;;;;;;5049199;28;20466;-67
2022/04/05 08:47:33;;;;;;;8.67;6.60;;;16.80;79.30;;;;;;5048821;28;20493;-70
2022/04/05 08:50:03;;;;;;;9.03;7.00;;;17.00;77.50;;;;;;5049179;28;20490;-68
2022/04/05 08:52:30;;;;;;;13.50;6.87;;;17.10;76.70;;;;;;5049063;28;20449;-69
2022/04/05 08:54:58;;;;;;;12.47;11.17;;;17.10;75.50;;;;;;5048773;28;20831;-70
2022/04/05 08:57:25;;;;;;;11.40;7.13;;;17.10;73.80;;;;;;5048871;28;20912;-70
2022/04/05 08:59:52;;;;;;;9.33;6.30;;;17.30;72.20;;;;;;5049204;28;20468;-68
2022/04/05 09:02:25;;;;;;;8.53;6.43;;;17.30;70.50;;;;;;5049110;28;20476;-69
2022/04/05 09:04:53;;;;;;;9.13;7.10;;;17.20;68.70;;;;;;5049246;28;20473;-69
2022/04/05 09:07:23;;;;;;;12.97;7.37;;;17.20;69.50;;;;;;5048569;28;20576;-68
2022/04/05 09:10:09;;;;;;;10.77;6.97;;;17.10;68.90;;;;;;5048800;28;20946;-69
2022/04/05 09:12:43;;;;;;;11.33;8.30;;;17.40;70.20;;;;;;5048909;28;20561;-69
2022/04/05 09:15:22;;;;;;;9.90;7.13;;;17.60;72.20;;;;;;5048849;28;20453;-69
2022/04/05 09:17:50;;;;;;;11.13;7.07;;;17.80;68.10;;;;;;5048694;28;20465;-67
2022/04/05 09:20:18;;;;;;;9.50;6.37;;;18.00;66.40;;;;;;5048530;28;20465;-69
2022/04/05 09:22:47;;;;;;;11.73;9.03;;;18.00;62.50;;;;;;5048299;28;20442;-68
2022/04/05 09:25:17;;;;;;;11.60;8.53;;;18.10;60.90;;;;;;5048601;28;20781;-69
2022/04/05 09:27:45;;;;;;;10.90;8.53;;;18.10;61.10;;;;;;5048591;28;20485;-71
2022/04/05 09:30:14;;;;;;;9.03;7.93;;;18.20;61.20;;;;;;5048687;28;20485;-68
2022/04/05 09:32:44;;;;;;;10.50;7.10;;;17.90;61.20;;;;;;5048918;28;20462;-69
2022/04/05 09:35:12;;;;;;;8.73;6.43;;;18.20;61.40;;;;;;5051937;28;20469;-68
2022/04/05 09:37:40;;;;;;;8.30;5.83;;;18.30;58.70;;;;;;5052128;28;20470;-71
2022/04/05 09:40:32;;;;;;;11.07;5.90;;;18.50;58.00;;;;;;5052175;28;20449;-70
2022/04/05 09:43:05;;;;;;;6.20;4.90;;;18.70;56.90;;;;;;5051962;28;20453;-69
2022/04/05 09:45:47;;;;;;;7.10;5.33;;;18.70;55.60;;;;;;5051967;28;20533;-69
2022/04/05 09:48:15;;;;;;;7.80;4.83;;;18.90;55.40;;;;;;5051731;28;21069;-70
2022/04/05 09:51:06;;;;;;;5.90;3.83;;;19.00;55.20;;;;;;5052082;28;20453;-68
2022/04/05 09:53:44;;;;;;;7.47;4.60;;;18.90;49.60;;;;;;5051692;28;20458;-69
2022/04/05 09:56:15;;;;;;;7.90;5.00;;;18.80;51.00;;;;;;5051747;28;20556;-70
2022/04/05 09:58:48;;;;;;;7.33;3.90;;;18.90;51.20;;;;;;5051774;28;20449;-73
2022/04/05 10:01:16;;;;;;;8.13;3.60;;;19.20;50.30;;;;;;5051300;28;20504;-70
2022/04/05 10:03:45;;;;;;;5.80;4.13;;;19.20;49.00;;;;;;5051536;28;20520;-69
2022/04/05 10:06:12;;;;;;;6.83;4.33;;;19.30;49.40;;;;;;5051432;28;20489;-67
2022/04/05 10:08:40;;;;;;;7.73;4.20;;;19.20;48.60;;;;;;5051632;28;20451;-67
2022/04/05 10:11:07;;;;;;;6.30;4.37;;;18.90;49.10;;;;;;5051257;28;20500;-71
2022/04/05 10:13:35;;;;;;;8.00;5.13;;;18.60;48.20;;;;;;5051663;28;20457;-68
2022/04/05 10:16:04;;;;;;;8.63;4.50;;;18.40;49.60;;;;;;5051213;28;21001;-70
2022/04/05 10:18:36;;;;;;;6.13;4.33;;;18.40;50.10;;;;;;5051236;28;20454;-70
2022/04/05 10:21:05;;;;;;;10.93;4.80;;;18.30;49.80;;;;;;5051275;28;20461;-69
2022/04/05 10:23:33;;;;;;;8.67;5.10;;;18.20;51.00;;;;;;5051412;28;20461;-68
2022/04/05 10:26:01;;;;;;;5.83;4.00;;;18.40;51.20;;;;;;5051248;28;20450;-69
2022/04/05 10:28:31;;;;;;;6.93;3.97;;;18.60;50.50;;;;;;5051026;28;20541;-67
2022/04/05 10:31:04;;;;;;;5.30;3.83;;;18.80;49.80;;;;;;5051309;28;20523;-70
2022/04/05 10:33:41;;;;;;;6.50;4.20;;;19.20;48.50;;;;;;5051222;28;20561;-69
2022/04/05 10:36:08;;;;;;;6.30;3.97;;;19.40;48.10;;;;;;5050657;28;20511;-71
2022/04/05 10:38:36;;;;;;;6.00;4.10;;;19.70;47.90;;;;;;5051134;28;20549;-68
2022/04/05 10:41:14;;;;;;;7.00;4.47;;;19.90;48.10;;;;;;5050985;28;20477;-71
2022/04/05 10:43:41;;;;;;;6.63;3.87;;;20.20;47.10;;;;;;5051039;28;20537;-72
2022/04/05 10:46:10;;;;;;;6.20;4.00;;;20.30;46.50;;;;;;5050205;28;20449;-72
2022/04/05 10:48:54;;;;;;;6.50;3.90;;;20.40;47.90;;;;;;5050602;28;20502;-70
2022/04/05 10:51:31;;;;;;;6.60;4.50;;;20.80;48.00;;;;;;5050711;28;20446;-70
2022/04/05 10:54:20;;;;;;;8.47;5.20;;;21.30;46.80;;;;;;5050612;28;20452;-69
2022/04/05 10:57:20;;;;;;;8.20;4.90;;;21.30;45.00;;;;;;5050830;28;20478;-69
2022/04/05 10:59:48;;;;;;;6.70;4.70;;;20.80;45.40;;;;;;5046276;28;20465;-70
2022/04/05 11:02:46;;;;;;;6.83;4.40;;;20.70;46.10;;;;;;5050366;28;20449;-68
2022/04/05 11:05:38;;;;;;;7.10;4.80;;;21.00;47.40;;;;;;5026252;28;20498;-72
2022/04/05 11:08:13;;;;;;;6.40;4.63;;;21.20;47.10;;;;;;5050395;28;20609;-64
2022/04/05 11:10:53;;;;;;;6.70;4.50;;;21.50;46.60;;;;;;5050440;28;20472;-71
2022/04/05 11:13:30;;;;;;;8.73;4.90;;;21.40;45.80;;;;;;5050538;28;20453;-67
2022/04/05 11:15:58;;;;;;;8.90;4.80;;;21.60;45.30;;;;;;5050460;28;20464;-71
2022/04/05 11:18:29;;;;;;;5.83;4.30;;;21.60;45.60;;;;;;5050036;28;20474;-71
2022/04/05 11:20:58;;;;;;;13.20;5.47;;;21.60;45.70;;;;;;5050450;28;20893;-79
2022/04/05 11:23:43;;;;;;;8.10;4.67;;;21.70;46.20;;;;;;5050337;28;20453;-70
2022/04/05 11:26:29;;;;;;;7.37;4.80;;;22.00;44.50;;;;;;5050252;28;20461;-71
2022/04/05 11:28:57;;;;;;;7.60;5.73;;;21.80;44.00;;;;;;5049968;28;20450;-71
2022/04/05 11:31:39;;;;;;;7.50;5.10;;;21.90;43.60;;;;;;5050077;28;20457;-74
2022/04/05 11:34:37;;;;;;;11.10;4.80;;;21.70;44.10;;;;;;5049878;28;20464;-71
2022/04/05 11:37:06;;;;;;;7.60;5.40;;;21.90;44.60;;;;;;5050212;28;20492;-74
2022/04/05 11:39:41;;;;;;;9.17;5.47;;;21.70;43.60;;;;;;5050078;28;20580;-73
2022/04/05 11:42:08;;;;;;;7.20;4.97;;;21.70;44.90;;;;;;5050022;28;20472;-72
2022/04/05 11:44:36;;;;;;;6.10;4.47;;;21.90;44.80;;;;;;5050106;28;20504;-73
2022/04/05 11:47:04;;;;;;;7.47;5.60;;;22.10;44.30;;;;;;5049613;28;20489;-73
2022/04/05 11:49:43;;;;;;;9.30;6.00;;;22.50;44.30;;;;;;5049066;28;20489;-73
2022/04/05 11:52:11;;;;;;;8.07;6.20;;;22.60;43.90;;;;;;5049619;28;20512;-75
2022/04/05 11:57:20;;;;;;;9.10;6.10;;;22.60;43.80;;;;;;5048670;28;20474;-70
2022/04/05 11:59:47;;;;;;;8.93;4.53;;;22.60;43.90;;;;;;5049643;28;20545;-71
2022/04/05 12:02:14;;;;;;;9.40;5.27;;;22.70;43.10;;;;;;5049361;28;20453;-69
2022/04/05 12:04:42;;;;;;;6.40;4.70;;;22.40;43.60;;;;;;5049374;28;20465;-70
2022/04/05 12:07:10;;;;;;;8.00;6.00;;;22.10;42.70;;;;;;5049545;28;20509;-70
2022/04/05 12:09:37;;;;;;;8.43;5.53;;;21.70;43.70;;;;;;5049622;28;20806;-70
2022/04/05 12:12:07;;;;;;;12.33;5.97;;;21.60;43.30;;;;;;5049652;28;20457;-70
2022/04/05 12:14:35;;;;;;;10.10;7.60;;;21.60;43.10;;;;;;5049417;28;20484;-66
2022/04/05 12:17:04;;;;;;;11.13;6.17;;;21.40;43.20;;;;;;5049517;28;20888;-70
2022/04/05 12:19:36;;;;;;;9.93;6.00;;;21.10;43.60;;;;;;5049273;28;20547;-71
2022/04/05 12:22:06;;;;;;;9.63;6.00;;;21.30;44.20;;;;;;5048831;28;20458;-77
2022/04/05 12:24:34;;;;;;;10.03;5.10;;;21.50;45.40;;;;;;5049415;28;20446;-75
2022/04/05 12:27:03;;;;;;;7.27;5.23;;;21.90;44.10;;;;;;5049391;28;20864;-75
2022/04/05 12:29:31;;;;;;;9.33;6.10;;;22.20;44.00;;;;;;5049327;28;20951;-79
2022/04/05 12:32:05;;;;;;;7.50;4.50;;;22.50;43.40;;;;;;5047855;28;20450;-66
2022/04/05 12:34:33;;;;;;;6.03;4.27;;;22.70;43.50;;;;;;5049082;28;20489;-66
2022/04/05 12:37:02;;;;;;;8.07;4.90;;;22.90;43.90;;;;;;5049273;28;20481;-68
2022/04/05 12:39:34;;;;;;;9.43;4.90;;;23.00;42.30;;;;;;5049195;28;20481;-64
2022/04/05 12:42:06;;;;;;;8.73;4.53;;;23.10;42.50;;;;;;5048827;28;20454;-66
2022/04/05 12:44:35;;;;;;;6.47;4.53;;;23.10;44.10;;;;;;5048866;28;20458;-65
2022/04/05 12:47:07;;;;;;;7.87;4.90;;;23.20;44.30;;;;;;5049136;28;20990;-69
2022/04/05 12:49:38;;;;;;;6.70;4.27;;;23.70;42.40;;;;;;5048953;28;20984;-66
2022/04/05 12:52:14;;;;;;;6.63;4.53;;;24.00;41.90;;;;;;5049353;28;20548;-67
2022/04/05 12:54:48;;;;;;;4.60;3.10;;;24.00;41.40;;;;;;5049233;28;20452;-68
2022/04/05 12:57:27;;;;;;;6.97;3.40;;;24.00;43.90;;;;;;5049014;28;21013;-67